sensor_id;sensor_type;location;lat;lon;timestamp;P1;durP1;ratioP1;P2;durP2;ratioP2
5696;SDS011;2873;50.966;7.210;2022-07-21T00:01:33;7.60;;;6.80;;
5696;SDS011;2873;50.966;7.210;2022-07-21T00:04:00;8.32;;;6.80;;
5696;SDS011;2873;50.966;7.210;2022-07-21T00:06:25;8.80;;;6.80;;
5696;SDS011;2873;50.966;7.210;2022-07-21T00:08:51;8.93;;;6.80;;
5696;SDS011;2873;50.966;7.210;2022-07-21T00:11:16;7.55;;;6.78;;
5696;SDS011;2873;50.966;7.210;2022-07-21T00:13:42;7.47;;;6.68;;
5696;SDS011;2873;50.966;7.210;2022-07-21T00:16:08;8.13;;;6.65;;
5696;SDS011;2873;50.966;7.210;2022-07-21T00:18:34;9.27;;;7.00;;
5696;SDS011;2873;50.966;7.210;2022-07-21T00:21:00;8.97;;;7.17;;
5696;SDS011;2873;50.966;7.210;2022-07-21T00:23:26;8.20;;;6.60;;
5696;SDS011;2873;50.966;7.210;2022-07-21T00:25:52;9.10;;;6.97;;
5696;SDS011;2873;50.966;7.210;2022-07-21T00:28:18;10.10;;;7.38;;
5696;SDS011;2873;50.966;7.210;2022-07-21T00:30:45;9.77;;;7.25;;
5696;SDS011;2873;50.966;7.210;2022-07-21T00:33:11;12.18;;;7.30;;
5696;SDS011;2873;50.966;7.210;2022-07-21T00:35:37;9.00;;;7.78;;
5696;SDS011;2873;50.966;7.210;2022-07-21T00:38:03;11.63;;;7.63;;
5696;SDS011;2873;50.966;7.210;2022-07-21T00:40:29;11.25;;;7.80;;
5696;SDS011;2873;50.966;7.210;2022-07-21T00:42:55;10.45;;;7.40;;
5696;SDS011;2873;50.966;7.210;2022-07-21T00:45:21;8.75;;;7.60;;
5696;SDS011;2873;50.966;7.210;2022-07-21T00:47:47;9.80;;;8.07;;
5696;SDS011;2873;50.966;7.210;2022-07-21T00:50:14;10.40;;;7.77;;
5696;SDS011;2873;50.966;7.210;2022-07-21T00:52:42;10.43;;;7.43;;
5696;SDS011;2873;50.966;7.210;2022-07-21T00:55:10;8.00;;;7.30;;
5696;SDS011;2873;50.966;7.210;2022-07-21T00:57:37;10.68;;;7.68;;
5696;SDS011;2873;50.966;7.210;2022-07-21T01:00:05;11.47;;;8.00;;
5696;SDS011;2873;50.966;7.210;2022-07-21T01:02:32;10.93;;;8.82;;
5696;SDS011;2873;50.966;7.210;2022-07-21T01:05:01;13.98;;;8.10;;
5696;SDS011;2873;50.966;7.210;2022-07-21T01:07:31;8.90;;;8.00;;
5696;SDS011;2873;50.966;7.210;2022-07-21T01:09:57;9.37;;;8.27;;
5696;SDS011;2873;50.966;7.210;2022-07-21T01:12:22;10.30;;;8.50;;
5696;SDS011;2873;50.966;7.210;2022-07-21T01:14:48;10.03;;;8.07;;
5696;SDS011;2873;50.966;7.210;2022-07-21T01:17:15;9.82;;;8.60;;
5696;SDS011;2873;50.966;7.210;2022-07-21T01:19:41;10.90;;;8.50;;
5696;SDS011;2873;50.966;7.210;2022-07-21T01:22:07;12.65;;;8.70;;
5696;SDS011;2873;50.966;7.210;2022-07-21T01:24:33;11.55;;;8.65;;
5696;SDS011;2873;50.966;7.210;2022-07-21T01:26:58;13.57;;;8.23;;
5696;SDS011;2873;50.966;7.210;2022-07-21T01:29:24;9.77;;;8.57;;
5696;SDS011;2873;50.966;7.210;2022-07-21T01:31:49;10.07;;;9.07;;
5696;SDS011;2873;50.966;7.210;2022-07-21T01:34:15;11.27;;;9.03;;
5696;SDS011;2873;50.966;7.210;2022-07-21T01:36:43;9.63;;;8.60;;
5696;SDS011;2873;50.966;7.210;2022-07-21T01:39:09;10.35;;;9.05;;
5696;SDS011;2873;50.966;7.210;2022-07-21T01:41:53;12.20;;;9.02;;
5696;SDS011;2873;50.966;7.210;2022-07-21T01:44:18;14.27;;;9.73;;
5696;SDS011;2873;50.966;7.210;2022-07-21T01:46:45;11.82;;;9.80;;
5696;SDS011;2873;50.966;7.210;2022-07-21T01:49:16;10.95;;;9.18;;
5696;SDS011;2873;50.966;7.210;2022-07-21T01:51:43;10.80;;;9.70;;
5696;SDS011;2873;50.966;7.210;2022-07-21T01:54:09;12.95;;;9.60;;
5696;SDS011;2873;50.966;7.210;2022-07-21T01:56:36;10.75;;;9.65;;
5696;SDS011;2873;50.966;7.210;2022-07-21T01:59:03;12.67;;;9.57;;
5696;SDS011;2873;50.966;7.210;2022-07-21T02:01:30;15.48;;;10.02;;
5696;SDS011;2873;50.966;7.210;2022-07-21T02:03:58;13.20;;;10.40;;
5696;SDS011;2873;50.966;7.210;2022-07-21T02:06:25;10.77;;;9.68;;
5696;SDS011;2873;50.966;7.210;2022-07-21T02:08:51;13.90;;;10.02;;
5696;SDS011;2873;50.966;7.210;2022-07-21T02:11:17;14.23;;;9.50;;
5696;SDS011;2873;50.966;7.210;2022-07-21T02:13:43;12.55;;;10.40;;
5696;SDS011;2873;50.966;7.210;2022-07-21T02:16:10;11.48;;;9.88;;
5696;SDS011;2873;50.966;7.210;2022-07-21T02:18:36;10.85;;;9.00;;
5696;SDS011;2873;50.966;7.210;2022-07-21T02:21:02;9.00;;;8.10;;
5696;SDS011;2873;50.966;7.210;2022-07-21T02:23:29;10.88;;;9.50;;
5696;SDS011;2873;50.966;7.210;2022-07-21T02:25:55;10.35;;;9.00;;
5696;SDS011;2873;50.966;7.210;2022-07-21T02:28:22;9.10;;;8.20;;
5696;SDS011;2873;50.966;7.210;2022-07-21T02:30:48;10.55;;;8.82;;
5696;SDS011;2873;50.966;7.210;2022-07-21T02:33:15;11.97;;;9.20;;
5696;SDS011;2873;50.966;7.210;2022-07-21T02:35:41;9.87;;;8.70;;
5696;SDS011;2873;50.966;7.210;2022-07-21T02:38:07;12.75;;;9.75;;
5696;SDS011;2873;50.966;7.210;2022-07-21T02:40:33;13.77;;;10.38;;
5696;SDS011;2873;50.966;7.210;2022-07-21T02:42:59;12.37;;;9.70;;
5696;SDS011;2873;50.966;7.210;2022-07-21T02:45:25;11.00;;;9.50;;
5696;SDS011;2873;50.966;7.210;2022-07-21T02:47:52;10.75;;;9.52;;
5696;SDS011;2873;50.966;7.210;2022-07-21T02:50:27;10.82;;;9.48;;
5696;SDS011;2873;50.966;7.210;2022-07-21T02:52:55;13.70;;;9.57;;
5696;SDS011;2873;50.966;7.210;2022-07-21T02:55:22;12.60;;;9.90;;
5696;SDS011;2873;50.966;7.210;2022-07-21T02:57:49;14.82;;;9.80;;
5696;SDS011;2873;50.966;7.210;2022-07-21T03:00:27;12.40;;;9.43;;
5696;SDS011;2873;50.966;7.210;2022-07-21T03:02:52;12.00;;;9.60;;
5696;SDS011;2873;50.966;7.210;2022-07-21T03:05:18;11.60;;;10.33;;
5696;SDS011;2873;50.966;7.210;2022-07-21T03:07:43;18.23;;;10.80;;
5696;SDS011;2873;50.966;7.210;2022-07-21T03:10:09;13.25;;;9.88;;
5696;SDS011;2873;50.966;7.210;2022-07-21T03:12:34;14.80;;;11.10;;
5696;SDS011;2873;50.966;7.210;2022-07-21T03:15:00;12.50;;;11.20;;
5696;SDS011;2873;50.966;7.210;2022-07-21T03:17:25;13.53;;;11.10;;
5696;SDS011;2873;50.966;7.210;2022-07-21T03:19:51;13.68;;;11.23;;
5696;SDS011;2873;50.966;7.210;2022-07-21T03:22:17;13.63;;;11.00;;
5696;SDS011;2873;50.966;7.210;2022-07-21T03:24:42;11.33;;;9.80;;
5696;SDS011;2873;50.966;7.210;2022-07-21T03:27:08;12.80;;;10.93;;
5696;SDS011;2873;50.966;7.210;2022-07-21T03:29:33;14.10;;;11.35;;
5696;SDS011;2873;50.966;7.210;2022-07-21T03:31:59;14.83;;;11.50;;
5696;SDS011;2873;50.966;7.210;2022-07-21T03:34:25;15.48;;;11.50;;
5696;SDS011;2873;50.966;7.210;2022-07-21T03:36:50;16.30;;;11.53;;
5696;SDS011;2873;50.966;7.210;2022-07-21T03:39:16;14.73;;;11.70;;
5696;SDS011;2873;50.966;7.210;2022-07-21T03:41:41;14.13;;;10.90;;
5696;SDS011;2873;50.966;7.210;2022-07-21T03:44:07;15.50;;;11.52;;
5696;SDS011;2873;50.966;7.210;2022-07-21T03:46:33;11.67;;;10.43;;
5696;SDS011;2873;50.966;7.210;2022-07-21T03:48:58;15.03;;;11.40;;
5696;SDS011;2873;50.966;7.210;2022-07-21T03:51:24;13.80;;;12.00;;
5696;SDS011;2873;50.966;7.210;2022-07-21T03:53:49;13.95;;;11.02;;
5696;SDS011;2873;50.966;7.210;2022-07-21T03:56:15;13.52;;;11.30;;
5696;SDS011;2873;50.966;7.210;2022-07-21T03:58:40;16.30;;;12.60;;
5696;SDS011;2873;50.966;7.210;2022-07-21T04:01:06;14.90;;;12.10;;
5696;SDS011;2873;50.966;7.210;2022-07-21T04:03:31;16.73;;;12.60;;
5696;SDS011;2873;50.966;7.210;2022-07-21T04:05:59;18.10;;;12.80;;
5696;SDS011;2873;50.966;7.210;2022-07-21T04:08:24;19.13;;;14.50;;
5696;SDS011;2873;50.966;7.210;2022-07-21T04:10:50;19.50;;;15.00;;
5696;SDS011;2873;50.966;7.210;2022-07-21T04:13:16;19.05;;;14.80;;
5696;SDS011;2873;50.966;7.210;2022-07-21T04:15:42;21.92;;;16.67;;
5696;SDS011;2873;50.966;7.210;2022-07-21T04:18:08;22.88;;;15.73;;
5696;SDS011;2873;50.966;7.210;2022-07-21T04:20:34;19.35;;;15.32;;
5696;SDS011;2873;50.966;7.210;2022-07-21T04:22:59;20.13;;;15.57;;
5696;SDS011;2873;50.966;7.210;2022-07-21T04:25:25;22.10;;;15.87;;
5696;SDS011;2873;50.966;7.210;2022-07-21T04:27:51;23.48;;;15.70;;
5696;SDS011;2873;50.966;7.210;2022-07-21T04:30:19;22.63;;;15.40;;
5696;SDS011;2873;50.966;7.210;2022-07-21T04:32:46;22.77;;;16.00;;
5696;SDS011;2873;50.966;7.210;2022-07-21T04:35:12;21.20;;;15.60;;
5696;SDS011;2873;50.966;7.210;2022-07-21T04:37:38;21.52;;;15.75;;
5696;SDS011;2873;50.966;7.210;2022-07-21T04:40:04;23.43;;;16.10;;
5696;SDS011;2873;50.966;7.210;2022-07-21T04:42:31;20.58;;;15.10;;
5696;SDS011;2873;50.966;7.210;2022-07-21T04:44:58;20.75;;;14.10;;
5696;SDS011;2873;50.966;7.210;2022-07-21T04:47:24;20.17;;;15.80;;
5696;SDS011;2873;50.966;7.210;2022-07-21T04:49:49;19.65;;;14.77;;
5696;SDS011;2873;50.966;7.210;2022-07-21T04:52:15;20.50;;;14.30;;
5696;SDS011;2873;50.966;7.210;2022-07-21T04:54:40;17.40;;;12.47;;
5696;SDS011;2873;50.966;7.210;2022-07-21T04:57:06;17.75;;;13.20;;
5696;SDS011;2873;50.966;7.210;2022-07-21T04:59:32;15.57;;;12.95;;
5696;SDS011;2873;50.966;7.210;2022-07-21T05:01:59;15.80;;;12.70;;
5696;SDS011;2873;50.966;7.210;2022-07-21T05:04:25;16.50;;;11.77;;
5696;SDS011;2873;50.966;7.210;2022-07-21T05:06:51;17.63;;;11.95;;
5696;SDS011;2873;50.966;7.210;2022-07-21T05:09:17;17.02;;;11.60;;
5696;SDS011;2873;50.966;7.210;2022-07-21T05:11:43;16.60;;;11.73;;
5696;SDS011;2873;50.966;7.210;2022-07-21T05:14:08;15.38;;;11.90;;
5696;SDS011;2873;50.966;7.210;2022-07-21T05:16:35;17.45;;;12.23;;
5696;SDS011;2873;50.966;7.210;2022-07-21T05:19:00;16.40;;;11.80;;
5696;SDS011;2873;50.966;7.210;2022-07-21T05:21:26;14.82;;;11.88;;
5696;SDS011;2873;50.966;7.210;2022-07-21T05:23:52;13.05;;;11.07;;
5696;SDS011;2873;50.966;7.210;2022-07-21T05:26:17;20.07;;;11.97;;
5696;SDS011;2873;50.966;7.210;2022-07-21T05:28:43;13.17;;;11.77;;
5696;SDS011;2873;50.966;7.210;2022-07-21T05:31:09;14.48;;;11.82;;
5696;SDS011;2873;50.966;7.210;2022-07-21T05:33:34;15.27;;;13.07;;
5696;SDS011;2873;50.966;7.210;2022-07-21T05:36:01;15.07;;;12.40;;
5696;SDS011;2873;50.966;7.210;2022-07-21T05:38:27;14.20;;;11.80;;
5696;SDS011;2873;50.966;7.210;2022-07-21T05:40:53;17.27;;;12.05;;
5696;SDS011;2873;50.966;7.210;2022-07-21T05:43:19;16.95;;;12.45;;
5696;SDS011;2873;50.966;7.210;2022-07-21T05:45:44;16.42;;;12.10;;
5696;SDS011;2873;50.966;7.210;2022-07-21T05:48:10;17.20;;;12.23;;
5696;SDS011;2873;50.966;7.210;2022-07-21T05:50:36;15.60;;;12.10;;
5696;SDS011;2873;50.966;7.210;2022-07-21T05:53:01;15.07;;;12.25;;
5696;SDS011;2873;50.966;7.210;2022-07-21T05:55:27;14.00;;;12.10;;
5696;SDS011;2873;50.966;7.210;2022-07-21T05:57:53;16.88;;;12.20;;
5696;SDS011;2873;50.966;7.210;2022-07-21T06:00:18;14.20;;;11.80;;
5696;SDS011;2873;50.966;7.210;2022-07-21T06:02:44;12.73;;;10.50;;
5696;SDS011;2873;50.966;7.210;2022-07-21T06:05:11;13.48;;;10.75;;
5696;SDS011;2873;50.966;7.210;2022-07-21T06:07:37;11.30;;;10.03;;
5696;SDS011;2873;50.966;7.210;2022-07-21T06:10:03;13.20;;;10.82;;
5696;SDS011;2873;50.966;7.210;2022-07-21T06:12:29;11.55;;;10.32;;
5696;SDS011;2873;50.966;7.210;2022-07-21T06:14:55;13.82;;;11.32;;
5696;SDS011;2873;50.966;7.210;2022-07-21T06:17:21;15.53;;;11.37;;
5696;SDS011;2873;50.966;7.210;2022-07-21T06:19:47;13.18;;;11.55;;
5696;SDS011;2873;50.966;7.210;2022-07-21T06:22:13;13.75;;;10.93;;
5696;SDS011;2873;50.966;7.210;2022-07-21T06:24:38;14.30;;;11.57;;
5696;SDS011;2873;50.966;7.210;2022-07-21T06:27:04;13.00;;;11.10;;
5696;SDS011;2873;50.966;7.210;2022-07-21T06:29:30;12.57;;;10.77;;
5696;SDS011;2873;50.966;7.210;2022-07-21T06:31:55;16.20;;;10.70;;
5696;SDS011;2873;50.966;7.210;2022-07-21T06:34:21;13.52;;;10.93;;
5696;SDS011;2873;50.966;7.210;2022-07-21T06:36:47;11.87;;;9.60;;
5696;SDS011;2873;50.966;7.210;2022-07-21T06:39:13;12.65;;;9.65;;
5696;SDS011;2873;50.966;7.210;2022-07-21T06:41:39;11.77;;;9.20;;
5696;SDS011;2873;50.966;7.210;2022-07-21T06:44:04;12.07;;;9.30;;
5696;SDS011;2873;50.966;7.210;2022-07-21T06:46:30;14.03;;;9.80;;
5696;SDS011;2873;50.966;7.210;2022-07-21T06:48:59;11.57;;;10.00;;
5696;SDS011;2873;50.966;7.210;2022-07-21T06:51:26;13.20;;;10.70;;
5696;SDS011;2873;50.966;7.210;2022-07-21T06:53:52;11.27;;;9.80;;
5696;SDS011;2873;50.966;7.210;2022-07-21T06:56:17;12.60;;;10.80;;
5696;SDS011;2873;50.966;7.210;2022-07-21T06:58:43;11.43;;;9.93;;
5696;SDS011;2873;50.966;7.210;2022-07-21T07:01:09;9.33;;;8.30;;
5696;SDS011;2873;50.966;7.210;2022-07-21T07:03:35;8.45;;;7.55;;
5696;SDS011;2873;50.966;7.210;2022-07-21T07:06:02;8.80;;;8.00;;
5696;SDS011;2873;50.966;7.210;2022-07-21T07:08:29;9.07;;;7.95;;
5696;SDS011;2873;50.966;7.210;2022-07-21T07:10:54;7.63;;;6.80;;
5696;SDS011;2873;50.966;7.210;2022-07-21T07:13:20;8.25;;;7.00;;
5696;SDS011;2873;50.966;7.210;2022-07-21T07:15:46;9.82;;;7.35;;
5696;SDS011;2873;50.966;7.210;2022-07-21T07:18:12;7.90;;;7.10;;
5696;SDS011;2873;50.966;7.210;2022-07-21T07:20:38;10.13;;;7.90;;
5696;SDS011;2873;50.966;7.210;2022-07-21T07:23:03;8.27;;;6.70;;
5696;SDS011;2873;50.966;7.210;2022-07-21T07:25:29;7.60;;;6.90;;
5696;SDS011;2873;50.966;7.210;2022-07-21T07:27:56;8.20;;;7.40;;
5696;SDS011;2873;50.966;7.210;2022-07-21T07:30:22;7.38;;;6.63;;
5696;SDS011;2873;50.966;7.210;2022-07-21T07:32:48;7.57;;;6.35;;
5696;SDS011;2873;50.966;7.210;2022-07-21T07:35:14;6.75;;;6.07;;
5696;SDS011;2873;50.966;7.210;2022-07-21T07:37:43;6.50;;;5.80;;
5696;SDS011;2873;50.966;7.210;2022-07-21T07:40:11;6.75;;;6.15;;
5696;SDS011;2873;50.966;7.210;2022-07-21T07:42:39;7.03;;;6.32;;
5696;SDS011;2873;50.966;7.210;2022-07-21T07:45:05;11.30;;;6.95;;
5696;SDS011;2873;50.966;7.210;2022-07-21T07:47:32;6.75;;;6.05;;
5696;SDS011;2873;50.966;7.210;2022-07-21T07:49:58;7.28;;;5.90;;
5696;SDS011;2873;50.966;7.210;2022-07-21T07:52:24;6.90;;;6.20;;
5696;SDS011;2873;50.966;7.210;2022-07-21T07:54:50;6.80;;;6.20;;
5696;SDS011;2873;50.966;7.210;2022-07-21T07:57:16;6.40;;;5.80;;
5696;SDS011;2873;50.966;7.210;2022-07-21T07:59:42;7.68;;;6.07;;
5696;SDS011;2873;50.966;7.210;2022-07-21T08:02:07;6.87;;;6.27;;
5696;SDS011;2873;50.966;7.210;2022-07-21T08:04:33;7.15;;;6.20;;
5696;SDS011;2873;50.966;7.210;2022-07-21T08:07:00;8.50;;;5.63;;
5696;SDS011;2873;50.966;7.210;2022-07-21T08:09:26;6.05;;;5.07;;
5696;SDS011;2873;50.966;7.210;2022-07-21T08:11:51;4.50;;;4.20;;
5696;SDS011;2873;50.966;7.210;2022-07-21T08:14:17;5.17;;;4.37;;
5696;SDS011;2873;50.966;7.210;2022-07-21T08:16:42;5.10;;;4.60;;
5696;SDS011;2873;50.966;7.210;2022-07-21T08:19:08;7.50;;;5.40;;
5696;SDS011;2873;50.966;7.210;2022-07-21T08:21:34;5.93;;;5.43;;
5696;SDS011;2873;50.966;7.210;2022-07-21T08:24:00;7.40;;;6.60;;
5696;SDS011;2873;50.966;7.210;2022-07-21T08:26:26;9.25;;;7.18;;
5696;SDS011;2873;50.966;7.210;2022-07-21T08:28:53;9.85;;;7.10;;
5696;SDS011;2873;50.966;7.210;2022-07-21T08:31:19;7.30;;;6.40;;
5696;SDS011;2873;50.966;7.210;2022-07-21T08:33:45;8.10;;;7.30;;
5696;SDS011;2873;50.966;7.210;2022-07-21T08:36:11;7.32;;;6.63;;
5696;SDS011;2873;50.966;7.210;2022-07-21T08:38:37;6.70;;;6.00;;
5696;SDS011;2873;50.966;7.210;2022-07-21T08:41:03;7.00;;;6.30;;
5696;SDS011;2873;50.966;7.210;2022-07-21T08:43:29;7.30;;;6.50;;
5696;SDS011;2873;50.966;7.210;2022-07-21T08:45:56;7.00;;;6.03;;
5696;SDS011;2873;50.966;7.210;2022-07-21T08:48:25;6.43;;;5.82;;
5696;SDS011;2873;50.966;7.210;2022-07-21T08:50:51;6.53;;;6.03;;
5696;SDS011;2873;50.966;7.210;2022-07-21T08:53:17;7.45;;;6.30;;
5696;SDS011;2873;50.966;7.210;2022-07-21T08:55:43;7.73;;;6.67;;
5696;SDS011;2873;50.966;7.210;2022-07-21T08:58:09;7.65;;;6.40;;
5696;SDS011;2873;50.966;7.210;2022-07-21T09:00:38;7.43;;;6.80;;
5696;SDS011;2873;50.966;7.210;2022-07-21T09:05:34;9.68;;;6.18;;
5696;SDS011;2873;50.966;7.210;2022-07-21T09:08:00;7.78;;;6.50;;
5696;SDS011;2873;50.966;7.210;2022-07-21T09:10:27;7.10;;;6.40;;
5696;SDS011;2873;50.966;7.210;2022-07-21T09:12:55;6.82;;;6.22;;
5696;SDS011;2873;50.966;7.210;2022-07-21T09:15:23;7.15;;;6.43;;
5696;SDS011;2873;50.966;7.210;2022-07-21T09:20:36;6.05;;;5.53;;
5696;SDS011;2873;50.966;7.210;2022-07-21T09:28:29;13.98;;;6.00;;
5696;SDS011;2873;50.966;7.210;2022-07-21T09:31:10;8.23;;;5.93;;
5696;SDS011;2873;50.966;7.210;2022-07-21T09:33:43;7.13;;;5.80;;
5696;SDS011;2873;50.966;7.210;2022-07-21T09:36:11;5.87;;;5.30;;
5696;SDS011;2873;50.966;7.210;2022-07-21T09:38:39;6.45;;;5.78;;
5696;SDS011;2873;50.966;7.210;2022-07-21T09:41:12;6.10;;;5.47;;
5696;SDS011;2873;50.966;7.210;2022-07-21T09:43:41;6.50;;;5.80;;
5696;SDS011;2873;50.966;7.210;2022-07-21T09:46:14;5.47;;;4.97;;
5696;SDS011;2873;50.966;7.210;2022-07-21T09:48:44;7.57;;;4.97;;
5696;SDS011;2873;50.966;7.210;2022-07-21T09:51:21;8.70;;;5.00;;
5696;SDS011;2873;50.966;7.210;2022-07-21T09:54:09;9.77;;;6.13;;
5696;SDS011;2873;50.966;7.210;2022-07-21T09:56:36;6.70;;;5.57;;
5696;SDS011;2873;50.966;7.210;2022-07-21T09:59:04;5.87;;;5.37;;
5696;SDS011;2873;50.966;7.210;2022-07-21T10:01:31;7.10;;;5.20;;
5696;SDS011;2873;50.966;7.210;2022-07-21T10:03:57;6.35;;;5.82;;
5696;SDS011;2873;50.966;7.210;2022-07-21T10:06:30;7.57;;;5.38;;
5696;SDS011;2873;50.966;7.210;2022-07-21T10:08:59;7.38;;;5.68;;
5696;SDS011;2873;50.966;7.210;2022-07-21T10:11:27;10.25;;;5.47;;
5696;SDS011;2873;50.966;7.210;2022-07-21T10:13:53;5.63;;;5.13;;
5696;SDS011;2873;50.966;7.210;2022-07-21T10:16:19;6.30;;;5.70;;
5696;SDS011;2873;50.966;7.210;2022-07-21T10:18:58;7.25;;;5.80;;
5696;SDS011;2873;50.966;7.210;2022-07-21T10:24:09;6.70;;;5.47;;
5696;SDS011;2873;50.966;7.210;2022-07-21T10:26:36;6.80;;;6.10;;
5696;SDS011;2873;50.966;7.210;2022-07-21T10:29:03;11.20;;;5.78;;
5696;SDS011;2873;50.966;7.210;2022-07-21T10:31:29;7.60;;;6.20;;
5696;SDS011;2873;50.966;7.210;2022-07-21T10:33:58;9.70;;;6.20;;
5696;SDS011;2873;50.966;7.210;2022-07-21T10:41:40;8.63;;;5.83;;
5696;SDS011;2873;50.966;7.210;2022-07-21T10:47:05;5.83;;;5.33;;
5696;SDS011;2873;50.966;7.210;2022-07-21T10:49:55;5.53;;;4.90;;
5696;SDS011;2873;50.966;7.210;2022-07-21T10:57:35;5.20;;;4.80;;
5696;SDS011;2873;50.966;7.210;2022-07-21T11:02:58;5.88;;;4.85;;
5696;SDS011;2873;50.966;7.210;2022-07-21T11:05:26;7.07;;;4.78;;
5696;SDS011;2873;50.966;7.210;2022-07-21T11:10:43;5.47;;;4.97;;
5696;SDS011;2873;50.966;7.210;2022-07-21T11:13:13;5.63;;;5.03;;
5696;SDS011;2873;50.966;7.210;2022-07-21T11:15:59;5.60;;;5.10;;
5696;SDS011;2873;50.966;7.210;2022-07-21T11:18:29;6.25;;;5.50;;
5696;SDS011;2873;50.966;7.210;2022-07-21T11:21:03;5.53;;;5.03;;
5696;SDS011;2873;50.966;7.210;2022-07-21T11:23:36;8.25;;;5.30;;
5696;SDS011;2873;50.966;7.210;2022-07-21T11:26:03;6.35;;;5.00;;
5696;SDS011;2873;50.966;7.210;2022-07-21T11:28:29;6.20;;;5.20;;
5696;SDS011;2873;50.966;7.210;2022-07-21T11:31:08;5.10;;;4.60;;
5696;SDS011;2873;50.966;7.210;2022-07-21T11:33:35;8.02;;;5.70;;
5696;SDS011;2873;50.966;7.210;2022-07-21T11:36:03;6.00;;;5.22;;
5696;SDS011;2873;50.966;7.210;2022-07-21T11:38:29;9.10;;;4.88;;
5696;SDS011;2873;50.966;7.210;2022-07-21T11:41:11;14.53;;;5.67;;
5696;SDS011;2873;50.966;7.210;2022-07-21T11:43:41;5.50;;;5.00;;
5696;SDS011;2873;50.966;7.210;2022-07-21T11:46:07;8.30;;;5.97;;
5696;SDS011;2873;50.966;7.210;2022-07-21T11:48:33;5.93;;;5.32;;
5696;SDS011;2873;50.966;7.210;2022-07-21T11:50:59;8.13;;;5.70;;
5696;SDS011;2873;50.966;7.210;2022-07-21T11:53:26;6.43;;;5.82;;
5696;SDS011;2873;50.966;7.210;2022-07-21T11:55:51;7.10;;;5.97;;
5696;SDS011;2873;50.966;7.210;2022-07-21T11:58:18;10.00;;;6.22;;
5696;SDS011;2873;50.966;7.210;2022-07-21T12:00:44;8.10;;;6.90;;
5696;SDS011;2873;50.966;7.210;2022-07-21T12:03:11;8.45;;;7.10;;
5696;SDS011;2873;50.966;7.210;2022-07-21T12:05:38;8.32;;;6.90;;
5696;SDS011;2873;50.966;7.210;2022-07-21T12:08:05;10.23;;;7.72;;
5696;SDS011;2873;50.966;7.210;2022-07-21T12:10:31;15.45;;;8.20;;
5696;SDS011;2873;50.966;7.210;2022-07-21T12:13:04;9.95;;;8.02;;
5696;SDS011;2873;50.966;7.210;2022-07-21T12:15:31;12.75;;;9.40;;
5696;SDS011;2873;50.966;7.210;2022-07-21T12:21:00;12.60;;;9.45;;
5696;SDS011;2873;50.966;7.210;2022-07-21T12:23:28;12.00;;;10.00;;
5696;SDS011;2873;50.966;7.210;2022-07-21T12:25:59;13.68;;;9.55;;
5696;SDS011;2873;50.966;7.210;2022-07-21T12:28:46;14.02;;;10.18;;
5696;SDS011;2873;50.966;7.210;2022-07-21T12:31:14;10.77;;;9.50;;
5696;SDS011;2873;50.966;7.210;2022-07-21T12:33:45;11.63;;;9.05;;
5696;SDS011;2873;50.966;7.210;2022-07-21T12:36:12;10.57;;;8.30;;
5696;SDS011;2873;50.966;7.210;2022-07-21T12:38:42;12.85;;;8.98;;
5696;SDS011;2873;50.966;7.210;2022-07-21T12:41:10;12.13;;;9.90;;
5696;SDS011;2873;50.966;7.210;2022-07-21T12:43:37;11.00;;;9.70;;
5696;SDS011;2873;50.966;7.210;2022-07-21T12:46:10;11.52;;;9.45;;
5696;SDS011;2873;50.966;7.210;2022-07-21T12:48:37;10.73;;;9.25;;
5696;SDS011;2873;50.966;7.210;2022-07-21T12:53:38;11.63;;;9.48;;
5696;SDS011;2873;50.966;7.210;2022-07-21T12:56:06;11.98;;;9.57;;
5696;SDS011;2873;50.966;7.210;2022-07-21T12:58:33;10.50;;;9.40;;
5696;SDS011;2873;50.966;7.210;2022-07-21T13:00:59;13.35;;;10.20;;
5696;SDS011;2873;50.966;7.210;2022-07-21T13:03:27;13.20;;;10.10;;
5696;SDS011;2873;50.966;7.210;2022-07-21T13:05:54;11.50;;;10.40;;
5696;SDS011;2873;50.966;7.210;2022-07-21T13:08:19;18.98;;;10.60;;
5696;SDS011;2873;50.966;7.210;2022-07-21T13:10:45;12.47;;;10.50;;
5696;SDS011;2873;50.966;7.210;2022-07-21T13:13:11;11.60;;;10.40;;
5696;SDS011;2873;50.966;7.210;2022-07-21T13:15:36;14.97;;;11.20;;
5696;SDS011;2873;50.966;7.210;2022-07-21T13:18:02;17.27;;;11.90;;
5696;SDS011;2873;50.966;7.210;2022-07-21T13:20:28;14.77;;;12.15;;
5696;SDS011;2873;50.966;7.210;2022-07-21T13:22:53;16.87;;;13.50;;
5696;SDS011;2873;50.966;7.210;2022-07-21T13:25:19;15.85;;;12.88;;
5696;SDS011;2873;50.966;7.210;2022-07-21T13:27:45;15.53;;;12.33;;
5696;SDS011;2873;50.966;7.210;2022-07-21T13:30:10;15.43;;;12.70;;
5696;SDS011;2873;50.966;7.210;2022-07-21T13:32:37;18.80;;;11.80;;
5696;SDS011;2873;50.966;7.210;2022-07-21T13:35:06;21.30;;;12.65;;
5696;SDS011;2873;50.966;7.210;2022-07-21T13:37:32;14.27;;;12.02;;
5696;SDS011;2873;50.966;7.210;2022-07-21T13:39:58;16.02;;;12.20;;
5696;SDS011;2873;50.966;7.210;2022-07-21T13:42:23;15.47;;;12.73;;
5696;SDS011;2873;50.966;7.210;2022-07-21T13:44:49;16.83;;;13.53;;
5696;SDS011;2873;50.966;7.210;2022-07-21T13:47:15;14.55;;;12.90;;
5696;SDS011;2873;50.966;7.210;2022-07-21T13:49:41;19.30;;;14.75;;
5696;SDS011;2873;50.966;7.210;2022-07-21T13:52:07;18.40;;;14.33;;
5696;SDS011;2873;50.966;7.210;2022-07-21T13:54:33;23.33;;;15.05;;
5696;SDS011;2873;50.966;7.210;2022-07-21T13:56:59;18.10;;;15.20;;
5696;SDS011;2873;50.966;7.210;2022-07-21T13:59:25;18.67;;;15.03;;
5696;SDS011;2873;50.966;7.210;2022-07-21T14:01:51;20.00;;;15.48;;
5696;SDS011;2873;50.966;7.210;2022-07-21T14:04:16;20.02;;;14.85;;
5696;SDS011;2873;50.966;7.210;2022-07-21T14:06:42;19.08;;;14.80;;
5696;SDS011;2873;50.966;7.210;2022-07-21T14:09:11;17.80;;;14.40;;
5696;SDS011;2873;50.966;7.210;2022-07-21T14:11:37;19.90;;;15.10;;
5696;SDS011;2873;50.966;7.210;2022-07-21T14:14:03;18.02;;;14.75;;
5696;SDS011;2873;50.966;7.210;2022-07-21T14:16:29;17.80;;;14.70;;
5696;SDS011;2873;50.966;7.210;2022-07-21T14:18:54;15.25;;;13.25;;
5696;SDS011;2873;50.966;7.210;2022-07-21T14:21:20;17.27;;;13.70;;
5696;SDS011;2873;50.966;7.210;2022-07-21T14:23:46;15.15;;;12.30;;
5696;SDS011;2873;50.966;7.210;2022-07-21T14:26:11;14.05;;;11.77;;
5696;SDS011;2873;50.966;7.210;2022-07-21T14:28:37;8.57;;;7.05;;
5696;SDS011;2873;50.966;7.210;2022-07-21T14:31:03;8.60;;;7.13;;
5696;SDS011;2873;50.966;7.210;2022-07-21T14:33:28;8.23;;;7.43;;
5696;SDS011;2873;50.966;7.210;2022-07-21T14:35:55;10.00;;;8.45;;
5696;SDS011;2873;50.966;7.210;2022-07-21T14:38:22;9.82;;;8.82;;
5696;SDS011;2873;50.966;7.210;2022-07-21T14:40:47;12.35;;;9.50;;
5696;SDS011;2873;50.966;7.210;2022-07-21T14:43:13;12.02;;;10.38;;
5696;SDS011;2873;50.966;7.210;2022-07-21T14:45:39;13.53;;;10.23;;
5696;SDS011;2873;50.966;7.210;2022-07-21T14:48:05;14.43;;;10.82;;
5696;SDS011;2873;50.966;7.210;2022-07-21T14:50:32;14.57;;;11.77;;
5696;SDS011;2873;50.966;7.210;2022-07-21T14:52:58;15.68;;;11.60;;
5696;SDS011;2873;50.966;7.210;2022-07-21T14:55:25;17.98;;;12.40;;
5696;SDS011;2873;50.966;7.210;2022-07-21T14:57:53;15.05;;;11.90;;
5696;SDS011;2873;50.966;7.210;2022-07-21T15:00:19;17.43;;;12.53;;
5696;SDS011;2873;50.966;7.210;2022-07-21T15:02:45;17.23;;;12.48;;
5696;SDS011;2873;50.966;7.210;2022-07-21T15:05:11;18.88;;;13.80;;
5696;SDS011;2873;50.966;7.210;2022-07-21T15:07:36;17.40;;;13.20;;
5696;SDS011;2873;50.966;7.210;2022-07-21T15:10:02;18.10;;;12.87;;
5696;SDS011;2873;50.966;7.210;2022-07-21T15:12:28;18.40;;;13.37;;
5696;SDS011;2873;50.966;7.210;2022-07-21T15:14:54;17.70;;;13.88;;
5696;SDS011;2873;50.966;7.210;2022-07-21T15:17:19;20.13;;;14.90;;
5696;SDS011;2873;50.966;7.210;2022-07-21T15:19:45;19.90;;;14.27;;
5696;SDS011;2873;50.966;7.210;2022-07-21T15:22:11;15.48;;;11.27;;
5696;SDS011;2873;50.966;7.210;2022-07-21T15:24:36;14.00;;;10.77;;
5696;SDS011;2873;50.966;7.210;2022-07-21T15:27:02;12.23;;;10.37;;
5696;SDS011;2873;50.966;7.210;2022-07-21T15:29:28;13.40;;;10.90;;
5696;SDS011;2873;50.966;7.210;2022-07-21T15:31:53;15.27;;;11.00;;
5696;SDS011;2873;50.966;7.210;2022-07-21T15:34:19;11.85;;;10.65;;
5696;SDS011;2873;50.966;7.210;2022-07-21T15:36:44;13.17;;;10.63;;